Lake Victor, Texas
Current Conditions -  °F | °C
As of 1:15 PM on Thursday 18 Dec 2014 (Local Time) from KLZZ Reporting Station
Clear Clear  
Wind Chill: 62°   Ceiling: Unl
Heat Index: 62°   Visibility: 10mi
Dew Point: 54°   Wind: 3mph
Humidity: 77%   Direction: 350°N
Pressure: 30.06"   Gusts: NA
Location:  31.1064°N, 98.2303°W
Report Text: KLZZ 181915Z AUTO 35003KT 10SM CLR 17/12 A3006 RMK AO2 T01650124
Loading
Personal Weather Stations






























Interactive Weather Map New forecast layout! Learn more

10-Day Weather Forecast

Advertisements
Track Severe Weather on mobile